Time;durP1;ratioP1;P1;durP2;ratioP2;P2;SDS_P1;SDS_P2;PMS_P1;PMS_P2;Temp;Humidity;BMP_temperature;BMP_pressure;BME280_temperature;BME280_humidity;BME280_pressure;Samples;Min_cycle;Max_cycle;Signal;HPM_P1;HPM_P2
2023/03/13 00:00:54;;;;;;;7.80;4.43;;;;;;;8.52;67.59;95799.34;5029466;28;20474;-71
2023/03/13 00:03:19;;;;;;;4.33;3.83;;;;;;;8.51;68.31;95800.25;5028722;28;20760;-71
2023/03/13 00:05:45;;;;;;;7.07;4.77;;;;;;;8.40;68.16;95805.97;5028575;28;20413;-70
2023/03/13 00:08:11;;;;;;;9.57;4.27;;;;;;;8.28;69.11;95793.41;5028820;28;20176;-70
2023/03/13 00:10:38;;;;;;;8.53;4.10;;;;;;;8.17;68.89;95793.91;5027217;28;20990;-71
2023/03/13 00:13:04;;;;;;;7.47;4.53;;;;;;;8.09;69.62;95796.00;5029105;28;20179;-71
2023/03/13 00:15:29;;;;;;;9.40;5.07;;;;;;;8.18;69.30;95792.13;5028712;28;20461;-71
2023/03/13 00:17:55;;;;;;;8.33;4.30;;;;;;;8.12;69.79;95793.22;5028594;28;20438;-71
2023/03/13 00:20:20;;;;;;;13.37;5.23;;;;;;;8.11;69.22;95783.72;5028708;28;20168;-72
2023/03/13 00:22:46;;;;;;;8.40;5.33;;;;;;;8.26;69.19;95787.41;5028749;28;20176;-70
2023/03/13 00:25:12;;;;;;;7.10;3.70;;;;;;;8.23;68.65;95791.00;5028832;28;20202;-71
2023/03/13 00:27:37;;;;;;;6.17;4.17;;;;;;;8.19;68.90;95793.81;5028141;28;20180;-70
2023/03/13 00:30:03;;;;;;;7.10;3.50;;;;;;;8.23;68.52;95792.78;5028498;28;20231;-70
2023/03/13 00:32:28;;;;;;;9.13;3.17;;;;;;;8.09;69.32;95798.59;5028339;28;20270;-71
2023/03/13 00:34:54;;;;;;;5.80;3.33;;;;;;;8.20;68.89;95791.16;5028128;28;20298;-70
2023/03/13 00:37:19;;;;;;;5.07;3.23;;;;;;;8.27;68.70;95789.13;5027873;28;20172;-70
2023/03/13 00:39:45;;;;;;;11.90;5.07;;;;;;;8.41;68.33;95789.38;5028223;28;20180;-72
2023/03/13 00:42:10;;;;;;;5.20;3.47;;;;;;;8.51;67.78;95791.59;5028161;28;20284;-70
2023/03/13 00:44:35;;;;;;;5.00;3.07;;;;;;;8.47;67.42;95789.09;5027932;28;20195;-70
2023/03/13 00:47:01;;;;;;;3.87;2.87;;;;;;;8.55;67.37;95793.13;5027646;28;20187;-71
2023/03/13 00:49:26;;;;;;;4.20;3.20;;;;;;;8.56;67.34;95795.66;5028154;28;20179;-70
2023/03/13 00:51:52;;;;;;;7.00;2.67;;;;;;;8.63;66.85;95783.16;5027602;28;20204;-70
2023/03/13 00:54:17;;;;;;;7.93;3.43;;;;;;;8.49;67.27;95783.78;5027874;28;20202;-71
2023/03/13 00:56:43;;;;;;;5.57;3.33;;;;;;;8.50;67.65;95782.84;5027936;28;20175;-69
2023/03/13 00:59:09;;;;;;;4.30;2.47;;;;;;;8.37;68.21;95781.72;5028551;28;20211;-70
2023/03/13 01:01:36;;;;;;;4.57;2.67;;;;;;;8.41;68.25;95783.28;5028510;28;20488;-72
2023/03/13 01:04:06;;;;;;;4.77;2.73;;;;;;;8.49;68.21;95786.41;5028716;28;20203;-72
2023/03/13 01:06:34;;;;;;;10.47;3.43;;;;;;;8.50;67.39;95776.78;5028983;28;20421;-72
2023/03/13 01:09:00;;;;;;;6.03;2.43;;;;;;;8.50;67.60;95777.63;5028983;28;20444;-72
2023/03/13 01:11:29;;;;;;;8.13;3.00;;;;;;;8.59;67.22;95766.75;5029138;28;20469;-72
2023/03/13 01:13:56;;;;;;;8.50;3.00;;;;;;;8.57;67.08;95765.13;5028156;28;20270;-71
2023/03/13 01:16:23;;;;;;;5.37;2.40;;;;;;;8.50;67.46;95764.56;5028424;28;20415;-72
2023/03/13 01:18:54;;;;;;;4.93;2.67;;;;;;;8.46;68.49;95763.03;5027980;28;20414;-70
2023/03/13 01:21:22;;;;;;;6.23;3.13;;;;;;;8.41;67.99;95758.00;5029370;28;20414;-71
2023/03/13 01:23:49;;;;;;;6.13;2.90;;;;;;;8.48;68.02;95750.72;5029895;28;20469;-71
2023/03/13 01:26:15;;;;;;;3.33;2.73;;;;;;;8.41;67.85;95752.78;5029620;28;20474;-71
2023/03/13 01:28:40;;;;;;;7.63;3.10;;;;;;;8.47;68.09;95755.09;5042849;28;20417;-72
2023/03/13 01:31:11;;;;;;;3.87;2.47;;;;;;;8.47;67.84;95751.63;5044092;28;20247;-71
2023/03/13 01:33:36;;;;;;;5.27;2.60;;;;;;;8.46;68.58;95749.94;5044512;28;20720;-71
2023/03/13 01:36:03;;;;;;;6.70;2.37;;;;;;;8.48;67.92;95753.34;5043776;28;20406;-71
2023/03/13 01:38:28;;;;;;;3.63;2.30;;;;;;;8.51;67.77;95758.44;5043229;28;20179;-70
2023/03/13 01:40:54;;;;;;;6.17;2.90;;;;;;;8.55;67.75;95746.03;5042751;28;20429;-72
2023/03/13 01:43:20;;;;;;;4.13;3.10;;;;;;;8.45;68.15;95745.63;5037460;28;20188;-71
2023/03/13 01:46:04;;;;;;;5.40;3.03;;;;;;;8.40;68.65;95738.00;5026821;28;20240;-71
2023/03/13 01:48:32;;;;;;;4.23;2.60;;;;;;;8.45;68.42;95732.53;5027147;28;20472;-72
2023/03/13 01:51:00;;;;;;;4.97;2.50;;;;;;;8.47;68.05;95731.56;5027084;28;20512;-72
2023/03/13 01:53:27;;;;;;;4.70;2.57;;;;;;;8.43;68.04;95737.00;5027124;28;20439;-71
2023/03/13 01:55:54;;;;;;;6.50;2.83;;;;;;;8.48;68.65;95727.19;5026770;28;20421;-72
2023/03/13 01:58:20;;;;;;;7.30;2.93;;;;;;;8.45;68.46;95728.16;5027214;28;20926;-71
2023/03/13 02:00:46;;;;;;;8.80;3.40;;;;;;;8.42;68.32;95724.84;5026900;28;20410;-71
2023/03/13 02:03:16;;;;;;;4.60;2.67;;;;;;;8.44;68.56;95721.25;5026963;28;20254;-71
2023/03/13 02:05:43;;;;;;;5.00;2.67;;;;;;;8.36;68.03;95720.72;5030530;28;20402;-71
2023/03/13 02:08:17;;;;;;;6.90;2.93;;;;;;;8.38;68.74;95721.47;5030600;28;20413;-71
2023/03/13 02:10:55;;;;;;;5.87;2.90;;;;;;;8.30;68.48;95713.16;5030803;28;20457;-71
2023/03/13 02:13:21;;;;;;;5.37;3.47;;;;;;;7.85;70.33;95720.38;5030652;28;20426;-71
2023/03/13 02:15:47;;;;;;;5.57;2.77;;;;;;;8.04;69.87;95722.19;5030806;28;20398;-72
2023/03/13 02:18:14;;;;;;;4.93;2.97;;;;;;;7.99;69.64;95719.78;5030390;28;20207;-72
2023/03/13 02:20:40;;;;;;;12.57;3.57;;;;;;;8.17;69.46;95710.28;5030656;28;20416;-72
2023/03/13 02:23:23;;;;;;;6.80;3.20;;;;;;;8.18;68.99;95709.34;5030538;28;20735;-72
2023/03/13 02:25:52;;;;;;;7.23;3.23;;;;;;;8.23;68.65;95711.75;5030364;28;20210;-72
2023/03/13 02:28:22;;;;;;;12.73;3.50;;;;;;;8.25;68.57;95712.53;5030475;28;20440;-72
2023/03/13 02:30:50;;;;;;;6.50;3.10;;;;;;;8.22;68.58;95708.28;5030098;28;21273;-72
2023/03/13 02:33:18;;;;;;;5.87;2.57;;;;;;;8.15;69.05;95704.25;5030183;28;20415;-72
2023/03/13 02:35:44;;;;;;;5.40;3.53;;;;;;;8.18;68.72;95698.88;5030034;28;20409;-71
2023/03/13 02:38:15;;;;;;;11.87;3.87;;;;;;;8.13;69.22;95693.03;5029943;28;20414;-72
2023/03/13 02:40:44;;;;;;;5.43;3.07;;;;;;;8.17;69.15;95691.97;5030373;28;20438;-70
2023/03/13 02:43:34;;;;;;;6.33;3.17;;;;;;;8.04;69.62;95690.84;5030034;28;20903;-71
2023/03/13 02:46:10;;;;;;;4.40;2.73;;;;;;;7.97;69.46;95678.97;5026733;28;20445;-72
2023/03/13 02:48:58;;;;;;;6.80;3.57;;;;;;;7.88;70.02;95687.22;5030479;28;20883;-71
2023/03/13 02:51:37;;;;;;;8.47;5.80;;;;;;;7.85;70.11;95686.44;5030085;28;20493;-71
2023/03/13 02:54:07;;;;;;;9.83;3.43;;;;;;;7.98;69.75;95678.03;5029938;28;20493;-71
2023/03/13 02:56:36;;;;;;;5.80;3.50;;;;;;;8.02;69.39;95675.22;5029635;28;20414;-71
2023/03/13 02:59:02;;;;;;;7.27;3.30;;;;;;;8.11;68.58;95668.72;5029995;28;20899;-72
2023/03/13 03:01:27;;;;;;;5.17;2.80;;;;;;;8.06;68.85;95666.31;5029991;28;20413;-71
2023/03/13 03:03:53;;;;;;;5.03;2.77;;;;;;;8.12;68.48;95662.56;5029702;28;20398;-70
2023/03/13 03:06:18;;;;;;;7.93;3.40;;;;;;;8.24;68.30;95650.69;5029431;28;20247;-71
2023/03/13 03:08:44;;;;;;;10.17;3.60;;;;;;;8.30;67.66;95657.44;5029874;28;20697;-71
2023/03/13 03:11:10;;;;;;;4.93;2.43;;;;;;;8.10;68.46;95664.41;5029824;28;20199;-71
2023/03/13 03:13:36;;;;;;;8.33;2.90;;;;;;;8.17;68.53;95663.22;5029531;28;20191;-71
2023/03/13 03:16:06;;;;;;;7.37;4.00;;;;;;;8.14;68.67;95655.50;5028936;28;21305;-71
2023/03/13 03:18:32;;;;;;;3.87;2.73;;;;;;;8.17;68.71;95644.06;5029525;28;20559;-71
2023/03/13 03:20:57;;;;;;;7.17;6.43;;;;;;;8.19;67.97;95655.31;5029749;28;20402;-71
2023/03/13 03:23:22;;;;;;;4.67;2.47;;;;;;;8.18;68.58;95646.63;5029300;28;20195;-71
2023/03/13 03:25:48;;;;;;;3.70;2.60;;;;;;;8.22;68.27;95645.56;5029272;28;20591;-71
2023/03/13 03:28:13;;;;;;;5.10;2.80;;;;;;;8.12;68.91;95649.50;5029257;28;20174;-71
2023/03/13 03:30:39;;;;;;;9.60;3.70;;;;;;;8.10;68.47;95643.50;5029357;28;20252;-72
2023/03/13 03:33:04;;;;;;;6.03;3.47;;;;;;;8.16;68.77;95645.00;5029037;28;20663;-71
2023/03/13 03:35:30;;;;;;;5.10;3.00;;;;;;;8.16;68.97;95640.59;5029243;28;20539;-71
2023/03/13 03:37:55;;;;;;;4.03;2.87;;;;;;;8.20;68.25;95636.09;5028978;28;20167;-71
2023/03/13 03:40:20;;;;;;;7.03;5.03;;;;;;;8.23;68.43;95634.19;5029281;28;20170;-70
2023/03/13 03:42:46;;;;;;;6.30;2.43;;;;;;;8.20;68.84;95628.25;5029275;28;20189;-71
2023/03/13 03:45:11;;;;;;;6.00;2.57;;;;;;;8.26;68.52;95636.63;5027502;28;20692;-69
2023/03/13 03:47:37;;;;;;;4.87;3.80;;;;;;;8.23;68.73;95628.94;5028761;28;20210;-71
2023/03/13 03:50:03;;;;;;;7.37;3.40;;;;;;;8.30;67.96;95628.69;5029022;28;20195;-69
2023/03/13 03:52:28;;;;;;;16.20;3.50;;;;;;;8.26;68.75;95623.56;5028821;28;20263;-70
2023/03/13 03:54:54;;;;;;;6.00;2.67;;;;;;;8.34;68.71;95611.91;5028747;28;20493;-71
2023/03/13 03:57:19;;;;;;;5.80;2.47;;;;;;;8.30;68.41;95597.31;5028185;28;20229;-71
2023/03/13 03:59:45;;;;;;;7.17;2.23;;;;;;;8.20;69.58;95587.28;5028524;28;20509;-71
2023/03/13 04:02:10;;;;;;;3.07;2.23;;;;;;;8.21;69.42;95588.97;5028708;28;20557;-72
2023/03/13 04:04:36;;;;;;;4.30;2.80;;;;;;;8.36;68.85;95591.75;5028488;28;20191;-74
2023/03/13 04:07:01;;;;;;;3.87;2.20;;;;;;;8.23;69.49;95586.28;5026989;28;20175;-72
2023/03/13 04:09:27;;;;;;;4.13;2.23;;;;;;;8.32;69.24;95582.41;5028380;28;20167;-70
2023/03/13 04:11:52;;;;;;;4.30;2.13;;;;;;;8.38;68.36;95585.53;5028662;28;20282;-71
2023/03/13 04:14:17;;;;;;;4.00;2.20;;;;;;;8.36;68.92;95582.19;5028864;28;20192;-71
2023/03/13 04:16:43;;;;;;;5.90;2.37;;;;;;;8.40;69.39;95580.28;5028611;28;20172;-70
2023/03/13 04:19:08;;;;;;;4.30;2.40;;;;;;;8.41;69.35;95587.19;5028922;28;20171;-72
2023/03/13 04:21:34;;;;;;;3.00;2.20;;;;;;;8.30;69.11;95579.00;5027429;28;20171;-72
2023/03/13 04:23:59;;;;;;;5.93;2.23;;;;;;;8.38;69.56;95572.47;5028571;28;20505;-71
2023/03/13 04:26:24;;;;;;;7.00;2.20;;;;;;;8.26;69.91;95571.28;5027590;28;20172;-72
2023/03/13 04:28:50;;;;;;;4.53;2.67;;;;;;;8.32;69.41;95567.56;5028563;28;20164;-72
2023/03/13 04:31:15;;;;;;;7.70;2.43;;;;;;;8.35;68.95;95575.25;5028005;28;20199;-72
2023/03/13 04:33:41;;;;;;;1.93;1.73;;;;;;;8.50;69.24;95567.59;5028364;28;20179;-71
2023/03/13 04:36:07;;;;;;;5.17;3.33;;;;;;;8.48;68.75;95559.84;5028050;28;20175;-72
2023/03/13 04:38:32;;;;;;;4.60;2.00;;;;;;;8.51;69.12;95548.41;5027645;28;20171;-70
2023/03/13 04:40:57;;;;;;;2.60;2.27;;;;;;;8.45;68.52;95550.38;5027857;28;20171;-71
2023/03/13 04:43:23;;;;;;;4.70;1.83;;;;;;;8.48;68.67;95554.63;5027761;28;20196;-69
2023/03/13 04:45:53;;;;;;;8.43;2.20;;;;;;;8.44;68.54;95553.91;5027204;28;20191;-69
2023/03/13 04:48:18;;;;;;;5.00;2.73;;;;;;;8.32;69.42;95551.03;5023713;28;20179;-69
2023/03/13 04:50:44;;;;;;;3.93;2.37;;;;;;;8.36;69.00;95555.16;5027302;28;20807;-69
2023/03/13 04:53:09;;;;;;;5.13;2.20;;;;;;;8.42;68.84;95562.75;5027757;28;20168;-70
2023/03/13 04:55:35;;;;;;;3.33;2.70;;;;;;;8.41;68.41;95559.31;5028293;28;20578;-70
2023/03/13 04:58:00;;;;;;;6.97;2.77;;;;;;;8.53;68.72;95556.97;5028258;28;20178;-70
2023/03/13 05:00:25;;;;;;;3.33;2.40;;;;;;;8.54;68.04;95549.06;5027745;28;20155;-70
2023/03/13 05:02:52;;;;;;;2.80;1.73;;;;;;;8.56;68.32;95551.63;5027387;28;20183;-70
2023/03/13 05:05:17;;;;;;;4.23;2.13;;;;;;;8.54;68.91;95556.06;5027860;28;20306;-70
2023/03/13 05:07:42;;;;;;;4.77;1.93;;;;;;;8.43;69.00;95552.22;5026554;28;20426;-70
2023/03/13 05:10:08;;;;;;;7.40;2.20;;;;;;;8.61;68.42;95542.63;5029952;28;20291;-69
2023/03/13 05:12:34;;;;;;;6.30;2.07;;;;;;;8.77;67.53;95536.63;5029478;28;20766;-70
2023/03/13 05:14:59;;;;;;;12.77;2.73;;;;;;;8.69;67.43;95537.00;5028834;28;20430;-71
2023/03/13 05:17:25;;;;;;;3.70;1.90;;;;;;;8.74;67.29;95532.41;5028054;28;20195;-70
2023/03/13 05:19:50;;;;;;;5.40;2.17;;;;;;;8.76;67.24;95540.16;5029211;28;20182;-69
2023/03/13 05:22:15;;;;;;;3.80;1.80;;;;;;;8.67;68.31;95534.47;5027924;28;20163;-69
2023/03/13 05:24:41;;;;;;;2.43;1.90;;;;;;;8.74;68.26;95534.16;5027386;28;20955;-70
2023/03/13 05:27:06;;;;;;;7.30;2.30;;;;;;;8.71;67.69;95524.69;5027030;28;20187;-69
2023/03/13 05:29:32;;;;;;;6.50;2.63;;;;;;;8.82;67.81;95505.84;5027145;28;20176;-69
2023/03/13 05:31:57;;;;;;;9.27;2.90;;;;;;;8.71;67.67;95518.63;5026808;28;20187;-70
2023/03/13 05:34:22;;;;;;;11.13;3.50;;;;;;;8.77;67.22;95515.69;5027072;28;20723;-68
2023/03/13 05:36:48;;;;;;;8.50;2.67;;;;;;;8.84;67.97;95514.47;5024251;28;20250;-70
2023/03/13 05:39:13;;;;;;;10.60;2.63;;;;;;;8.83;67.20;95526.69;5029070;28;20253;-69
2023/03/13 05:41:39;;;;;;;15.07;3.50;;;;;;;8.95;67.01;95538.28;5026184;28;20167;-69
2023/03/13 05:44:04;;;;;;;3.50;2.23;;;;;;;8.93;67.29;95534.06;5026044;28;20277;-69
2023/03/13 05:46:30;;;;;;;3.67;2.30;;;;;;;9.04;67.39;95534.34;5024311;28;20266;-69
2023/03/13 05:48:55;;;;;;;15.63;4.93;;;;;;;9.10;66.86;95521.81;5025280;28;20174;-68
2023/03/13 05:51:21;;;;;;;2.97;2.40;;;;;;;9.14;66.47;95532.09;5026818;28;20214;-69
2023/03/13 05:53:46;;;;;;;6.90;2.50;;;;;;;9.11;66.87;95523.47;5025764;28;20395;-69
2023/03/13 05:56:11;;;;;;;7.83;3.10;;;;;;;9.18;65.71;95524.00;5026712;28;20178;-69
2023/03/13 05:58:37;;;;;;;8.80;2.70;;;;;;;9.13;66.17;95517.34;5026743;28;20210;-69
2023/03/13 06:01:11;;;;;;;3.30;1.90;;;;;;;9.10;66.63;95513.13;5026809;28;20282;-69
2023/03/13 06:03:36;;;;;;;4.13;2.70;;;;;;;9.13;66.32;95514.72;5026790;28;20199;-70
2023/03/13 06:06:02;;;;;;;6.27;2.50;;;;;;;9.13;66.94;95520.78;5026720;28;20441;-71
2023/03/13 06:08:28;;;;;;;4.40;2.30;;;;;;;9.12;67.17;95526.97;5026882;28;20633;-71
2023/03/13 06:10:53;;;;;;;3.27;2.60;;;;;;;9.06;67.25;95525.50;5025442;28;20207;-71
2023/03/13 06:13:19;;;;;;;3.83;2.33;;;;;;;8.98;68.01;95526.84;5026634;28;20237;-70
2023/03/13 06:15:52;;;;;;;3.40;3.10;;;;;;;9.11;67.53;95525.25;5024757;28;20179;-70
2023/03/13 06:18:17;;;;;;;3.93;2.80;;;;;;;9.20;66.07;95527.41;5024478;28;20701;-69
2023/03/13 06:20:43;;;;;;;2.50;1.90;;;;;;;9.28;65.73;95511.28;5024356;28;20421;-69
2023/03/13 06:23:09;;;;;;;9.13;2.63;;;;;;;9.34;65.84;95505.72;5024018;28;20259;-75
2023/03/13 06:25:34;;;;;;;4.23;2.00;;;;;;;9.30;65.95;95506.81;5022572;28;20179;-69
2023/03/13 06:28:00;;;;;;;3.27;1.73;;;;;;;9.35;65.83;95491.69;5021084;28;20179;-69
2023/03/13 06:30:25;;;;;;;4.00;2.43;;;;;;;9.31;65.60;95492.81;5021798;28;20211;-70
2023/03/13 06:32:50;;;;;;;9.47;2.67;;;;;;;9.33;65.27;95490.97;5022259;28;20185;-70
2023/03/13 06:35:16;;;;;;;5.87;2.17;;;;;;;9.33;66.11;95490.97;5023510;28;20202;-70
2023/03/13 06:37:42;;;;;;;4.53;2.40;;;;;;;9.37;66.15;95482.00;5023173;28;20183;-69
2023/03/13 06:40:08;;;;;;;8.57;2.27;;;;;;;9.36;65.32;95488.16;5023038;28;20223;-70
2023/03/13 06:42:34;;;;;;;11.60;3.43;;;;;;;9.40;65.21;95492.31;5021534;28;20613;-70
2023/03/13 06:44:59;;;;;;;6.90;2.57;;;;;;;9.43;65.77;95491.31;5023484;28;20460;-70
2023/03/13 06:47:24;;;;;;;7.73;2.87;;;;;;;9.41;65.55;95501.84;5021167;28;20192;-69
2023/03/13 06:49:50;;;;;;;9.73;2.60;;;;;;;9.34;66.32;95492.63;5022543;28;21867;-70
2023/03/13 06:52:15;;;;;;;4.30;2.80;;;;;;;9.54;65.97;95488.94;5026344;28;20175;-70
2023/03/13 06:54:41;;;;;;;11.03;3.63;;;;;;;9.51;66.30;95489.09;5026361;28;20191;-70
2023/03/13 06:57:06;;;;;;;4.63;2.40;;;;;;;9.51;65.63;95478.63;5027336;28;20186;-68
2023/03/13 06:59:32;;;;;;;18.77;4.63;;;;;;;9.51;66.19;95491.72;5025458;28;20193;-69
2023/03/13 07:01:58;;;;;;;4.77;2.67;;;;;;;9.66;65.92;95497.91;5026377;28;20321;-69
2023/03/13 07:04:23;;;;;;;15.67;4.27;;;;;;;9.68;65.79;95496.03;5025855;28;20762;-68
2023/03/13 07:06:50;;;;;;;11.03;3.37;;;;;;;9.63;66.73;95487.59;5027595;28;20256;-70
2023/03/13 07:09:15;;;;;;;7.33;2.80;;;;;;;9.68;66.02;95475.09;5026440;28;20240;-70
2023/03/13 07:11:40;;;;;;;6.37;2.67;;;;;;;9.74;65.08;95487.84;5026691;28;20458;-70
2023/03/13 07:14:06;;;;;;;5.63;2.67;;;;;;;9.73;65.41;95489.63;5026367;28;20213;-70
2023/03/13 07:16:31;;;;;;;8.50;2.80;;;;;;;9.76;65.87;95488.63;5026054;28;20176;-69
2023/03/13 07:18:57;;;;;;;6.60;2.80;;;;;;;9.98;65.27;95492.66;5026206;28;20218;-69
2023/03/13 07:21:22;;;;;;;5.80;2.90;;;;;;;9.93;65.44;95490.31;5026498;28;20171;-71
2023/03/13 07:23:48;;;;;;;6.03;3.30;;;;;;;10.12;65.01;95485.69;5026695;28;20196;-70
2023/03/13 07:26:14;;;;;;;7.60;2.33;;;;;;;10.36;63.90;95493.13;5026056;28;20692;-70
2023/03/13 07:28:40;;;;;;;5.50;1.90;;;;;;;10.61;63.30;95503.06;5026565;28;20207;-69
2023/03/13 07:31:15;;;;;;;4.53;2.27;;;;;;;10.83;62.08;95493.91;5026299;28;20486;-71
2023/03/13 07:33:41;;;;;;;4.60;2.40;;;;;;;10.89;62.35;95494.41;5026132;28;20190;-69
2023/03/13 07:36:07;;;;;;;5.37;2.80;;;;;;;11.41;60.06;95482.53;5026041;28;20414;-70
2023/03/13 07:38:33;;;;;;;5.13;4.07;;;;;;;11.75;58.59;95480.41;5026006;28;20176;-70
2023/03/13 07:40:58;;;;;;;10.20;3.57;;;;;;;11.95;57.50;95476.53;5026100;28;20488;-69
2023/03/13 07:43:25;;;;;;;5.30;3.07;;;;;;;11.62;58.49;95467.19;5027590;28;20222;-71
2023/03/13 07:45:54;;;;;;;5.80;3.03;;;;;;;11.57;59.05;95467.47;5028017;28;20180;-69
2023/03/13 07:48:21;;;;;;;19.20;3.70;;;;;;;11.36;59.79;95468.81;5027137;28;20450;-70
2023/03/13 07:50:47;;;;;;;4.17;2.07;;;;;;;11.17;60.15;95474.34;5028558;28;20489;-70
2023/03/13 07:53:12;;;;;;;10.30;2.53;;;;;;;11.13;60.58;95478.97;5028858;28;21314;-71
2023/03/13 07:55:38;;;;;;;2.90;2.00;;;;;;;11.10;60.94;95479.16;5028731;28;20406;-70
2023/03/13 07:58:03;;;;;;;4.17;2.20;;;;;;;11.00;61.32;95489.34;5028565;28;20784;-71
2023/03/13 08:00:29;;;;;;;4.13;2.20;;;;;;;11.04;61.51;95491.78;5028789;28;20195;-72
2023/03/13 08:02:54;;;;;;;6.60;2.70;;;;;;;11.21;61.18;95489.81;5028111;28;20176;-70
2023/03/13 08:05:20;;;;;;;14.03;4.13;;;;;;;11.39;60.43;95479.16;5028963;28;20195;-71
2023/03/13 08:07:45;;;;;;;8.60;2.50;;;;;;;11.58;59.74;95482.31;5028658;28;20523;-71
2023/03/13 08:10:11;;;;;;;6.67;2.50;;;;;;;11.65;59.41;95478.34;5028867;28;20200;-70
2023/03/13 08:12:36;;;;;;;3.63;2.77;;;;;;;11.69;59.71;95479.00;5029296;28;20185;-70
2023/03/13 08:15:01;;;;;;;6.80;2.50;;;;;;;11.93;59.43;95479.28;5028874;28;20191;-70
2023/03/13 08:17:30;;;;;;;4.77;2.40;;;;;;;12.10;58.99;95487.88;5028972;28;20230;-70
2023/03/13 08:19:55;;;;;;;4.90;2.30;;;;;;;12.21;58.19;95482.72;5029693;28;20171;-71
2023/03/13 08:22:21;;;;;;;8.33;2.60;;;;;;;12.54;57.22;95473.56;5029997;28;20413;-72
2023/03/13 08:24:47;;;;;;;6.43;2.10;;;;;;;12.89;56.29;95468.56;5029754;28;20202;-71
2023/03/13 08:27:12;;;;;;;3.13;1.90;;;;;;;13.06;55.20;95462.13;5028529;28;20179;-71
2023/03/13 08:29:38;;;;;;;5.63;2.23;;;;;;;13.03;55.63;95457.09;5028485;28;20782;-70
2023/03/13 08:32:03;;;;;;;2.40;1.70;;;;;;;12.98;55.51;95449.50;5027843;28;20204;-71
2023/03/13 08:34:29;;;;;;;3.30;2.07;;;;;;;13.07;56.67;95448.03;5027969;28;20226;-70
2023/03/13 08:36:55;;;;;;;3.07;2.10;;;;;;;13.20;55.98;95445.38;5027499;28;20535;-69
2023/03/13 08:39:21;;;;;;;5.00;1.70;;;;;;;13.25;56.17;95449.41;5027733;28;20191;-70
2023/03/13 08:41:47;;;;;;;4.60;2.70;;;;;;;13.20;56.25;95438.31;5026107;28;20839;-70
2023/03/13 08:44:15;;;;;;;3.73;1.57;;;;;;;13.21;56.17;95447.94;5027651;28;20931;-70
2023/03/13 08:46:41;;;;;;;5.10;2.00;;;;;;;13.29;55.73;95440.34;5027491;28;20644;-70
2023/03/13 08:49:07;;;;;;;4.07;1.50;;;;;;;13.35;55.68;95444.38;5028448;28;20464;-70
2023/03/13 08:51:33;;;;;;;14.40;2.70;;;;;;;13.31;55.95;95435.81;5027805;28;20210;-71
2023/03/13 08:54:00;;;;;;;4.83;2.00;;;;;;;13.36;55.96;95430.22;5027591;28;20436;-69
2023/03/13 08:56:29;;;;;;;6.03;2.10;;;;;;;13.31;55.67;95427.06;5027397;28;20442;-70
2023/03/13 08:58:57;;;;;;;8.47;2.07;;;;;;;13.52;56.19;95430.00;5027194;28;20495;-71
2023/03/13 09:01:25;;;;;;;7.60;1.90;;;;;;;13.75;55.07;95434.47;5025343;28;20422;-69
2023/03/13 09:03:51;;;;;;;5.97;1.73;;;;;;;14.27;54.47;95423.66;5027020;28;20938;-70
2023/03/13 09:06:17;;;;;;;8.93;2.00;;;;;;;14.64;52.73;95413.88;5026943;28;20422;-70
2023/03/13 09:08:43;;;;;;;10.33;2.53;;;;;;;14.84;52.13;95409.72;5027108;28;20703;-69
2023/03/13 09:11:11;;;;;;;3.90;1.70;;;;;;;15.12;51.41;95410.22;5027129;28;20980;-71
2023/03/13 09:13:43;;;;;;;6.60;2.13;;;;;;;15.64;50.20;95406.13;5024952;28;20489;-70
2023/03/13 09:16:12;;;;;;;3.60;1.67;;;;;;;16.09;49.10;95404.25;5022049;28;20726;-70
2023/03/13 09:18:37;;;;;;;3.57;1.67;;;;;;;16.11;48.80;95411.19;5026926;28;20406;-70
2023/03/13 09:21:06;;;;;;;5.30;1.67;;;;;;;15.80;49.49;95419.84;5026834;28;20476;-69
2023/03/13 09:23:31;;;;;;;5.57;1.40;;;;;;;15.50;49.94;95411.69;5027364;28;20184;-69
2023/03/13 09:25:57;;;;;;;3.13;2.00;;;;;;;15.30;51.00;95414.06;5041543;28;21072;-69
2023/03/13 09:28:25;;;;;;;5.43;1.93;;;;;;;15.25;51.09;95395.94;5017894;28;20654;-69
2023/03/13 09:30:51;;;;;;;4.33;2.07;;;;;;;15.17;51.68;95394.88;5013917;28;20273;-68
2023/03/13 09:33:17;;;;;;;5.70;1.90;;;;;;;15.47;51.08;95383.66;5026072;28;20433;-68
2023/03/13 09:35:49;;;;;;;3.40;1.50;;;;;;;15.33;51.36;95389.19;5022803;28;20254;-68
2023/03/13 09:38:15;;;;;;;2.07;1.43;;;;;;;15.18;51.91;95370.09;5026424;28;20885;-68
2023/03/13 09:40:45;;;;;;;3.07;1.73;;;;;;;15.12;51.81;95379.38;5027516;28;20488;-67
2023/03/13 09:43:29;;;;;;;7.40;1.93;;;;;;;15.12;52.30;95371.44;5037537;28;20429;-68
2023/03/13 09:46:00;;;;;;;3.47;1.67;;;;;;;15.07;52.98;95363.03;5026162;28;20426;-68
2023/03/13 09:48:33;;;;;;;3.73;1.60;;;;;;;15.06;53.17;95363.16;5042999;28;20938;-67
2023/03/13 09:51:09;;;;;;;6.20;1.63;;;;;;;15.10;52.74;95365.44;5038004;28;20468;-69
2023/03/13 09:53:48;;;;;;;13.47;2.80;;;;;;;15.08;53.06;95372.63;5026353;28;20430;-69
2023/03/13 09:56:21;;;;;;;6.23;2.17;;;;;;;15.18;52.51;95372.75;5026078;28;20490;-69
2023/03/13 09:59:19;;;;;;;9.90;1.83;;;;;;;15.37;52.36;95383.53;5025024;28;20963;-69
2023/03/13 10:01:46;;;;;;;7.80;2.73;;;;;;;15.53;52.36;95392.91;5018491;28;20741;-68
2023/03/13 10:04:17;;;;;;;5.40;2.30;;;;;;;15.67;51.63;95382.06;5026257;28;20449;-68
2023/03/13 10:06:46;;;;;;;15.30;4.90;;;;;;;15.92;50.96;95380.09;5026440;28;20723;-69
2023/03/13 10:09:22;;;;;;;11.57;3.70;;;;;;;16.16;50.35;95377.25;5026648;28;20806;-68
2023/03/13 10:11:53;;;;;;;4.13;1.80;;;;;;;16.26;50.21;95372.91;5026344;28;20458;-69
2023/03/13 10:14:26;;;;;;;6.30;2.17;;;;;;;16.54;49.73;95381.19;5026208;28;20434;-69
2023/03/13 10:17:06;;;;;;;27.07;4.50;;;;;;;16.76;49.27;95365.16;5026312;28;20460;-69
2023/03/13 10:19:36;;;;;;;15.70;2.43;;;;;;;17.07;48.29;95367.84;5026482;28;20414;-68
2023/03/13 10:22:18;;;;;;;3.83;1.80;;;;;;;16.87;48.41;95367.75;5026090;28;20410;-69
2023/03/13 10:24:50;;;;;;;3.40;2.00;;;;;;;16.46;49.58;95363.28;5026763;28;20444;-68
2023/03/13 10:27:16;;;;;;;4.00;1.73;;;;;;;16.66;49.20;95362.44;5029879;28;20493;-69
2023/03/13 10:29:41;;;;;;;16.63;2.43;;;;;;;16.62;49.08;95362.84;5030288;28;20414;-69
2023/03/13 10:32:10;;;;;;;8.57;2.00;;;;;;;16.75;49.03;95358.19;5030900;28;20282;-69
2023/03/13 10:34:54;;;;;;;7.57;1.83;;;;;;;16.60;49.29;95351.53;5032104;28;20191;-69
2023/03/13 10:37:24;;;;;;;7.73;2.40;;;;;;;16.96;48.55;95341.44;5033666;28;20422;-69
2023/03/13 10:39:49;;;;;;;4.20;1.47;;;;;;;17.08;48.30;95337.75;5033280;28;20410;-69
2023/03/13 10:42:32;;;;;;;7.27;1.97;;;;;;;17.19;48.13;95334.13;5031758;28;20405;-71
2023/03/13 10:45:04;;;;;;;2.80;1.60;;;;;;;17.27;47.85;95339.63;5030490;28;21075;-70
2023/03/13 10:47:34;;;;;;;6.93;2.27;;;;;;;17.09;48.99;95347.34;5029501;28;20438;-70
2023/03/13 10:50:02;;;;;;;4.17;2.00;;;;;;;17.03;48.68;95337.28;5038284;28;20455;-68
2023/03/13 10:52:42;;;;;;;2.83;1.60;;;;;;;17.19;48.42;95337.63;5030416;28;20457;-70
2023/03/13 10:55:13;;;;;;;4.93;2.13;;;;;;;17.19;48.66;95331.50;5030858;28;20966;-69
2023/03/13 10:57:43;;;;;;;2.93;1.90;;;;;;;17.34;48.72;95335.47;5029386;28;20418;-69
2023/03/13 11:00:38;;;;;;;4.40;2.00;;;;;;;17.53;47.80;95326.72;5029599;28;20976;-69
2023/03/13 11:03:20;;;;;;;5.43;2.13;;;;;;;17.85;47.56;95313.22;5029008;28;21066;-68
2023/03/13 11:05:57;;;;;;;3.97;1.90;;;;;;;18.03;47.04;95308.09;5028863;28;20426;-68
2023/03/13 11:08:25;;;;;;;2.30;1.87;;;;;;;18.24;46.25;95301.78;5029279;28;20418;-70
2023/03/13 11:11:03;;;;;;;3.00;1.60;;;;;;;18.35;46.41;95294.50;5029005;28;20520;-69
2023/03/13 11:13:30;;;;;;;10.73;2.37;;;;;;;18.43;46.09;95290.31;5028852;28;20434;-69
2023/03/13 11:16:05;;;;;;;7.13;2.67;;;;;;;18.27;46.60;95283.75;5028871;28;20418;-69
2023/03/13 11:19:03;;;;;;;28.93;4.80;;;;;;;18.24;46.53;95283.22;5029111;28;20449;-68
2023/03/13 11:21:43;;;;;;;8.50;2.10;;;;;;;18.44;46.36;95278.69;5028407;28;20426;-68
2023/03/13 11:24:24;;;;;;;12.77;2.03;;;;;;;18.30;46.43;95272.00;5028524;28;20988;-70
2023/03/13 11:27:03;;;;;;;10.50;2.03;;;;;;;18.34;46.87;95274.22;5028756;28;20410;-68
2023/03/13 11:30:02;;;;;;;4.70;2.00;;;;;;;18.32;46.34;95265.56;5028612;28;20444;-68
2023/03/13 11:32:41;;;;;;;4.27;1.60;;;;;;;18.22;46.66;95258.59;5018229;28;20465;-70
2023/03/13 11:35:39;;;;;;;3.90;1.77;;;;;;;18.14;46.75;95251.31;5027375;28;21113;-70
2023/03/13 11:38:31;;;;;;;5.30;1.83;;;;;;;18.06;47.32;95241.44;5002780;28;20576;-69
2023/03/13 11:41:38;;;;;;;4.87;2.17;;;;;;;18.30;46.61;95240.13;5022648;28;20437;-70